Aérodrome :
LOGIN :

S'inscrire | Disclaimer

   EN    FR    IT 

 










Légende :    VFR   VFR Marginal   IFR   IFR Intensif   IFR Très Intensif
Visi : 
Plafond : 
>= 8 km
>= 3000ft
5 à 8 km
1000 à 3000 ft
1500m à 5 km
500 à 1000 ft
800 à 1500m
200 à 500 ft
< 800m
< 200 ft
Symboles :   Orages  Brouillard  Fortes neiges  Fortes précipitations  Vent > 20 kt
SIGMETs :   Divers  Orages  Givrage  Turbulence  Onde Orograph.  Cendres Volcan.






- Altitude de l'aérodrome : 814 ft
- Code IATA : TLM


DAON - Zenata - Tlemcen

DERNIER METAR :
  • 240600Z 20010KT 9999 FEW026 09/03 Q1020

METARs EXPIRÉS :
  • 240530Z 20004KT 9999 SCT026 08/02 Q1020
  • 240500Z 22004KT 9999 SCT026 08/01 Q1020
  • 240430Z 20008KT 9999 SCT026 08/01 Q1020
  • 240400Z 20008KT 9999 SCT026 09/02 Q1020
  • 240330Z 20008KT 9999 SCT026 09/02 Q1020

TAF TAF DAON
Valide du 24 à 06h jusqu'au 25 à 06h UTC


240500Z 2406/2506 VRB02KT 9999 SCT026
BECMG 2410/2412 22005KT CAVOK
BECMG 2414/2416 02010KT
BECMG 2420/2422 VRB02KT



MET'MAP, la Météo Aéronautique d'un coup d'oeil ! - Copyright ORBIFLY Décembre 2007 - Disclaimer

ORBIFLY MET'MAP TEAM :

Programmation & Développement : Alexandra Zaïnal
Sur une idée originale de : Baudouin d'Aumeries
Assistance à la programmation : Marc-Olivier Méhu
Soutien technique & logistique : Manuel Goepfert

Contact : metmap@orbifly.com




SOURCES & CREDITS :

   NOAA